Terminal Aerodrome Forecast
Issued by NWS

Home | Current Version | Previous Version | Graphics & Text | Print | Product List | Glossary On
Versions: 1 2 3 4 5 6 7 8 9 10 11 12 13 14 15
038
FTUS43 KUNR 031728
TAFGCC
TAF
KGCC 031728Z 0318/0418 28011KT P6SM SKC
     FM032300 24011KT P6SM SCT250
     FM041600 21013KT P6SM BKN110=

USA.gov is the U.S. government's official web portal to all federal, state and local government web resources and services.